createdAt,value
2023-03-14T00:00:51.777Z,1
2023-03-14T00:02:06.202Z,1.2
2023-03-14T00:03:20.518Z,0.9
2023-03-14T00:04:34.801Z,1.1
2023-03-14T00:05:49.221Z,1
2023-03-14T00:07:03.540Z,1
2023-03-14T00:08:17.965Z,0.8
2023-03-14T00:09:32.278Z,1.2
2023-03-14T00:10:46.573Z,0.9
2023-03-14T00:12:00.968Z,1.1
2023-03-14T00:13:15.290Z,1
2023-03-14T00:14:29.566Z,1.1
2023-03-14T00:15:43.848Z,1
2023-03-14T00:16:58.264Z,1.3
2023-03-14T00:18:12.582Z,0.9
2023-03-14T00:19:26.869Z,1
2023-03-14T00:20:41.270Z,1
2023-03-14T00:21:55.674Z,1.2
2023-03-14T00:23:09.998Z,1.3
2023-03-14T00:24:24.280Z,1.2
2023-03-14T00:25:38.554Z,1
2023-03-14T00:26:52.982Z,0.8
2023-03-14T00:28:07.299Z,1
2023-03-14T00:29:21.568Z,0.9
2023-03-14T00:30:35.857Z,0.9
2023-03-14T00:31:50.262Z,0.9
2023-03-14T00:33:04.597Z,1.5
2023-03-14T00:34:18.877Z,1.2
2023-03-14T00:35:33.152Z,1.1
2023-03-14T00:36:47.553Z,1
2023-03-14T00:38:01.886Z,1.1
2023-03-14T00:39:16.184Z,1.1
2023-03-14T00:40:30.439Z,1
2023-03-14T00:41:44.858Z,1
2023-03-14T00:42:59.171Z,1
2023-03-14T00:44:13.459Z,1.5
2023-03-14T00:45:27.883Z,1.2
2023-03-14T00:46:42.288Z,1.4
2023-03-14T00:47:56.600Z,1.3
2023-03-14T00:49:10.882Z,0.9
2023-03-14T00:50:25.166Z,1
2023-03-14T00:51:39.576Z,1.1
2023-03-14T00:52:53.893Z,1
2023-03-14T00:54:08.173Z,0.7
2023-03-14T00:55:22.454Z,1
2023-03-14T00:56:36.864Z,0.7
2023-03-14T00:57:51.186Z,0.9
2023-03-14T00:59:05.468Z,1
2023-03-14T01:00:19.903Z,0.9
2023-03-14T01:02:48.632Z,0.9
2023-03-14T01:04:02.903Z,1
2023-03-14T01:05:17.184Z,0.8
2023-03-14T01:06:31.595Z,0.9
2023-03-14T01:07:45.916Z,1
2023-03-14T01:09:00.199Z,0.9
2023-03-14T01:10:14.487Z,1
2023-03-14T01:11:28.881Z,1.2
2023-03-14T01:12:43.205Z,1.6
2023-03-14T01:13:57.497Z,0.7
2023-03-14T01:15:11.899Z,1
2023-03-14T01:16:26.302Z,1
2023-03-14T01:17:40.628Z,1
2023-03-14T01:18:54.904Z,0.9
2023-03-14T01:20:09.182Z,1.3
2023-03-14T01:21:23.585Z,0.9
2023-03-14T01:22:37.925Z,1.1
2023-03-14T01:23:52.200Z,0.9
2023-03-14T01:25:06.477Z,1
2023-03-14T01:26:20.894Z,0.8
2023-03-14T01:27:35.210Z,1.4
2023-03-14T01:28:49.497Z,1.1
2023-03-14T01:30:03.778Z,1.3
2023-03-14T01:32:32.504Z,0.9
2023-03-14T01:33:46.782Z,1
2023-03-14T01:35:01.203Z,0.9
2023-03-14T01:36:15.607Z,0.8
2023-03-14T01:37:29.941Z,0.9
2023-03-14T01:38:44.227Z,0.9
2023-03-14T01:39:58.507Z,1
2023-03-14T01:41:12.908Z,1.2
2023-03-14T01:43:41.516Z,0.9
2023-03-14T01:44:55.931Z,1.2
2023-03-14T01:46:10.352Z,1
2023-03-14T01:47:24.672Z,1
2023-03-14T01:48:38.950Z,0.9
2023-03-14T01:49:53.353Z,1
2023-03-14T01:51:07.762Z,0.8
2023-03-14T01:52:22.074Z,0.9
2023-03-14T01:53:36.363Z,0.9
2023-03-14T01:54:50.653Z,0.8
2023-03-14T01:56:05.057Z,1.2
2023-03-14T01:57:19.368Z,1
2023-03-14T01:58:33.648Z,1
2023-03-14T01:59:47.928Z,1.2
2023-03-14T02:01:02.340Z,1.2
2023-03-14T02:03:30.940Z,1
2023-03-14T02:04:45.223Z,1.3
2023-03-14T02:05:59.578Z,1.1
2023-03-14T02:07:13.842Z,1.4
2023-03-14T02:08:28.056Z,1.1
2023-03-14T02:09:42.424Z,1.2
2023-03-14T02:10:56.711Z,1.1
2023-03-14T02:12:11.010Z,1.3
2023-03-14T02:13:25.252Z,1.1
2023-03-14T02:14:39.530Z,1
2023-03-14T02:15:53.770Z,1.2
2023-03-14T02:17:08.045Z,1.2
2023-03-14T02:18:22.392Z,1.5
2023-03-14T02:19:36.642Z,1.1
2023-03-14T02:20:50.872Z,1
2023-03-14T02:22:05.237Z,1.2
2023-03-14T02:23:19.464Z,1.2
2023-03-14T02:24:33.756Z,1.2
2023-03-14T02:25:48.004Z,1.2
2023-03-14T02:27:02.228Z,1.2
2023-03-14T02:28:16.447Z,1.1
2023-03-14T02:29:30.674Z,1.3
2023-03-14T02:30:44.981Z,1.1
2023-03-14T02:31:59.215Z,1.1
2023-03-14T02:34:27.667Z,1
2023-03-14T02:35:41.962Z,1.1
2023-03-14T02:36:56.352Z,1.1
2023-03-14T02:38:10.675Z,1.1
2023-03-14T02:39:24.971Z,1.1
2023-03-14T02:41:53.651Z,1.2
2023-03-14T02:44:22.261Z,1.1
2023-03-14T02:45:36.538Z,1.1
2023-03-14T02:46:50.938Z,1
2023-03-14T02:48:05.260Z,1.1
2023-03-14T02:49:19.552Z,1.1
2023-03-14T02:50:33.835Z,1.1
2023-03-14T02:51:48.233Z,0.9
2023-03-14T02:53:02.630Z,1
2023-03-14T02:54:16.035Z,0.8
2023-03-14T02:55:29.420Z,1
2023-03-14T02:56:43.741Z,1.1
2023-03-14T02:57:57.105Z,0.9
2023-03-14T02:59:11.381Z,0.8
2023-03-14T03:00:25.779Z,1
2023-03-14T03:01:40.113Z,1.2
2023-03-14T03:02:54.393Z,0.9
2023-03-14T03:04:08.674Z,0.9
2023-03-14T03:05:23.077Z,1.1
2023-03-14T03:06:37.395Z,0.9
2023-03-14T03:07:51.799Z,1
2023-03-14T03:09:06.125Z,0.8
2023-03-14T03:10:20.414Z,0.8
2023-03-14T03:11:34.813Z,1
2023-03-14T03:12:49.151Z,0.8
2023-03-14T03:14:03.416Z,0.8
2023-03-14T03:15:17.705Z,0.7
2023-03-14T03:16:32.120Z,0.9
2023-03-14T03:17:46.444Z,0.9
2023-03-14T03:19:00.715Z,1.1
2023-03-14T03:20:15.004Z,0.8
2023-03-14T03:22:43.722Z,0.8
2023-03-14T03:23:58.007Z,1
2023-03-14T03:25:12.297Z,0.8
2023-03-14T03:26:26.698Z,0.8
2023-03-14T03:27:41.020Z,1
2023-03-14T03:28:55.295Z,0.9
2023-03-14T03:30:09.734Z,1
2023-03-14T03:31:24.145Z,0.8
2023-03-14T03:32:38.449Z,1.1
2023-03-14T03:33:52.734Z,1.1
2023-03-14T03:35:07.015Z,0.9
2023-03-14T03:37:35.740Z,0.9
2023-03-14T03:38:50.037Z,0.8
2023-03-14T03:40:04.305Z,0.8
2023-03-14T03:41:18.711Z,0.8
2023-03-14T03:42:33.042Z,1
2023-03-14T03:43:47.310Z,1
2023-03-14T03:45:01.731Z,0.9
2023-03-14T03:46:16.125Z,0.9
2023-03-14T03:47:30.463Z,1
2023-03-14T03:48:44.737Z,0.8
2023-03-14T03:49:59.012Z,1.3
2023-03-14T03:52:27.754Z,1.2
2023-03-14T03:53:42.024Z,0.8
2023-03-14T03:54:56.315Z,0.9
2023-03-14T03:56:10.704Z,0.9
2023-03-14T03:57:25.048Z,0.9
2023-03-14T03:58:39.327Z,0.9
2023-03-14T03:59:53.606Z,0.9
2023-03-14T04:01:08.001Z,0.9
2023-03-14T04:02:22.323Z,1.1
2023-03-14T04:03:36.604Z,0.8
2023-03-14T04:04:51.036Z,1.1
2023-03-14T04:06:05.443Z,0.9
2023-03-14T04:07:19.757Z,0.9
2023-03-14T04:08:34.042Z,0.9
2023-03-14T04:09:48.334Z,0.9
2023-03-14T04:11:02.737Z,0.9
2023-03-14T04:12:17.060Z,1
2023-03-14T04:13:31.344Z,0.8
2023-03-14T04:14:45.615Z,0.8
2023-03-14T04:16:00.029Z,0.9
2023-03-14T04:17:14.354Z,0.9
2023-03-14T04:18:28.635Z,1.1
2023-03-14T04:19:43.055Z,1
2023-03-14T04:20:57.466Z,0.7
2023-03-14T04:22:11.775Z,0.9
2023-03-14T04:23:26.054Z,0.9
2023-03-14T04:24:40.464Z,0.9
2023-03-14T04:25:54.872Z,1
2023-03-14T04:27:09.208Z,0.7
2023-03-14T04:28:23.476Z,1.2
2023-03-14T04:29:37.762Z,0.9
2023-03-14T04:30:52.170Z,0.9
2023-03-14T04:32:06.498Z,1.2
2023-03-14T04:33:20.764Z,1.1
2023-03-14T04:34:35.048Z,1.2
2023-03-14T04:35:49.451Z,0.9
2023-03-14T04:37:03.786Z,1
2023-03-14T04:38:18.065Z,0.8
2023-03-14T04:39:32.343Z,1.3
2023-03-14T04:40:46.756Z,1.1
2023-03-14T04:42:01.075Z,1.3
2023-03-14T04:43:15.362Z,0.9
2023-03-14T04:44:29.764Z,1
2023-03-14T04:45:44.160Z,0.8
2023-03-14T04:46:58.494Z,1
2023-03-14T04:48:12.772Z,1.2
2023-03-14T04:50:41.453Z,1
2023-03-14T04:51:55.784Z,1
2023-03-14T04:53:10.067Z,1
2023-03-14T04:54:24.331Z,1
2023-03-14T04:55:38.754Z,0.9
2023-03-14T04:56:53.064Z,1.2
2023-03-14T04:58:07.344Z,0.9
2023-03-14T04:59:21.624Z,1.3
2023-03-14T05:00:36.043Z,1.2
2023-03-14T05:01:50.358Z,0.9
2023-03-14T05:03:04.652Z,0.9
2023-03-14T05:04:18.914Z,1.1
2023-03-14T05:05:33.320Z,0.8
2023-03-14T05:06:47.574Z,1.1
2023-03-14T05:08:01.788Z,1.5
2023-03-14T05:09:16.167Z,1.3
2023-03-14T05:10:30.394Z,1.3
2023-03-14T05:11:44.683Z,1
2023-03-14T05:12:58.996Z,1.7
2023-03-14T05:14:13.261Z,1
2023-03-14T05:15:27.555Z,1.1
2023-03-14T05:16:41.912Z,0.9
2023-03-14T05:17:56.136Z,1.2
2023-03-14T05:19:10.372Z,1.6
2023-03-14T05:20:24.594Z,1.1
2023-03-14T05:21:38.966Z,1.5
2023-03-14T05:22:53.269Z,1
2023-03-14T05:24:07.507Z,1
2023-03-14T05:25:21.726Z,1.3
2023-03-14T05:26:35.957Z,1
2023-03-14T05:27:50.193Z,0.9
2023-03-14T05:29:04.497Z,1.2
2023-03-14T05:30:18.731Z,0.9
2023-03-14T05:31:33.069Z,1
2023-03-14T05:32:47.303Z,1
2023-03-14T05:34:01.532Z,1.3
2023-03-14T05:35:15.827Z,1
2023-03-14T05:37:44.299Z,1
2023-03-14T05:38:58.528Z,1
2023-03-14T05:41:27.049Z,1.1
2023-03-14T05:43:55.506Z,0.9
2023-03-14T05:45:09.743Z,1.2
2023-03-14T05:47:38.407Z,1.3
2023-03-14T05:48:52.659Z,1.2
2023-03-14T05:50:06.884Z,1
2023-03-14T05:51:21.249Z,1.2
2023-03-14T05:52:35.474Z,1
2023-03-14T05:53:49.770Z,1
2023-03-14T05:55:04.010Z,1
2023-03-14T05:56:18.235Z,1.5
2023-03-14T05:57:32.467Z,0.9
2023-03-14T05:58:46.686Z,1.1
2023-03-14T06:00:00.992Z,1.1
2023-03-14T06:01:15.237Z,0.9
2023-03-14T06:02:29.454Z,1
2023-03-14T06:03:43.817Z,1
2023-03-14T06:04:58.040Z,1.1
2023-03-14T06:06:12.333Z,1.2
2023-03-14T06:07:26.587Z,1.2
2023-03-14T06:09:55.043Z,1
2023-03-14T06:11:09.264Z,1.1
2023-03-14T06:12:23.561Z,1.4
2023-03-14T06:13:37.801Z,1.2
2023-03-14T06:14:52.030Z,1.1
2023-03-14T06:16:06.260Z,1.2
2023-03-14T06:17:20.483Z,1.4
2023-03-14T06:18:34.785Z,1.1
2023-03-14T06:19:49.016Z,1.2
2023-03-14T06:21:03.244Z,1
2023-03-14T06:22:17.467Z,1.2
2023-03-14T06:23:31.837Z,1.2
2023-03-14T06:24:46.136Z,1.1
2023-03-14T06:26:00.380Z,1.1
2023-03-14T06:27:14.621Z,1.2
2023-03-14T06:28:28.834Z,0.9
2023-03-14T06:29:43.070Z,1.1
2023-03-14T06:30:57.357Z,0.9
2023-03-14T06:32:11.607Z,1.2
2023-03-14T06:33:25.834Z,1.2
2023-03-14T06:34:40.056Z,1
2023-03-14T06:35:54.404Z,1.1
2023-03-14T06:38:22.956Z,1.2
2023-03-14T06:39:37.171Z,1.2
2023-03-14T06:40:51.404Z,1
2023-03-14T06:42:05.634Z,1.1
2023-03-14T06:43:19.927Z,1
2023-03-14T06:44:34.167Z,1
2023-03-14T06:45:48.391Z,1.1
2023-03-14T06:47:02.616Z,1.3
2023-03-14T06:48:16.839Z,1
2023-03-14T06:49:31.145Z,1
2023-03-14T06:50:45.392Z,1.1
2023-03-14T06:51:59.610Z,0.9
2023-03-14T06:53:13.833Z,1
2023-03-14T06:54:28.061Z,1
2023-03-14T06:55:42.375Z,0.9
2023-03-14T06:56:56.619Z,1
2023-03-14T06:58:10.833Z,1
2023-03-14T06:59:25.069Z,1.1
2023-03-14T07:00:39.282Z,1.3
2023-03-14T07:01:53.591Z,1.1
2023-03-14T07:03:07.828Z,1
2023-03-14T07:04:22.055Z,1
2023-03-14T07:05:36.424Z,1.1
2023-03-14T07:06:50.653Z,1
2023-03-14T07:08:04.963Z,1.2
2023-03-14T07:09:19.197Z,1.1
2023-03-14T07:10:33.414Z,1.1
2023-03-14T07:11:47.650Z,1.1
2023-03-14T07:14:16.322Z,1
2023-03-14T07:15:30.563Z,0.9
2023-03-14T07:16:44.785Z,1
2023-03-14T07:17:59.013Z,1
2023-03-14T07:19:13.245Z,1
2023-03-14T07:20:27.531Z,1.1
2023-03-14T07:21:41.789Z,1.6
2023-03-14T07:22:56.013Z,1.1
2023-03-14T07:24:10.227Z,1.1
2023-03-14T07:25:24.609Z,1.2
2023-03-14T07:26:38.900Z,1.2
2023-03-14T07:27:53.136Z,1.3
2023-03-14T07:29:07.360Z,1.1
2023-03-14T07:31:35.828Z,1.5
2023-03-14T07:32:50.127Z,1.1
2023-03-14T07:34:04.372Z,1.3
2023-03-14T07:35:18.710Z,1.1
2023-03-14T07:36:32.945Z,1.6
2023-03-14T07:37:47.163Z,1.2
2023-03-14T07:39:01.465Z,1.2
2023-03-14T07:40:15.700Z,1.4
2023-03-14T07:41:30.055Z,1.1
2023-03-14T07:42:44.284Z,1.2
2023-03-14T07:43:58.516Z,1.5
2023-03-14T07:45:12.811Z,1.4
2023-03-14T07:46:27.050Z,1.4
2023-03-14T07:47:41.286Z,1.7
2023-03-14T07:48:55.521Z,1.4
2023-03-14T07:50:09.728Z,1.6
2023-03-14T07:51:24.031Z,1.4
2023-03-14T07:53:52.505Z,1.4
2023-03-14T07:55:06.875Z,1.3
2023-03-14T07:56:21.103Z,1.4
2023-03-14T07:57:35.398Z,1.5
2023-03-14T07:58:49.642Z,1.5
2023-03-14T08:00:03.874Z,1.7
2023-03-14T08:01:18.086Z,1.5
2023-03-14T08:02:32.323Z,1.7
2023-03-14T08:03:46.615Z,1.6
2023-03-14T08:05:00.868Z,1.5
2023-03-14T08:06:15.093Z,1.4
2023-03-14T08:07:29.310Z,1.8
2023-03-14T08:08:43.552Z,1.5
2023-03-14T08:09:57.853Z,1.5
2023-03-14T08:11:12.091Z,1.7
2023-03-14T08:12:26.445Z,1.7
2023-03-14T08:13:40.687Z,1.8
2023-03-14T08:14:55.020Z,1.4
2023-03-14T08:17:23.577Z,1.7
2023-03-14T08:18:37.796Z,1.8
2023-03-14T08:19:52.032Z,1.7
2023-03-14T08:21:06.255Z,1.8
2023-03-14T08:22:20.552Z,1.7
2023-03-14T08:23:34.784Z,1.5
2023-03-14T08:24:49.024Z,1.5
2023-03-14T08:26:03.261Z,1.6
2023-03-14T08:27:17.475Z,1.4
2023-03-14T08:29:46.010Z,1.6
2023-03-14T08:31:00.238Z,1.9
2023-03-14T08:32:14.613Z,1.7
2023-03-14T08:33:28.840Z,1.5
2023-03-14T08:34:43.142Z,1.6
2023-03-14T08:35:57.383Z,1.9
2023-03-14T08:37:11.724Z,1.4
2023-03-14T08:38:25.955Z,1.6
2023-03-14T08:39:40.177Z,1.7
2023-03-14T08:40:54.477Z,1.4
2023-03-14T08:42:08.718Z,1.3
2023-03-14T08:43:22.937Z,1.6
2023-03-14T08:44:37.162Z,1.4
2023-03-14T08:45:51.403Z,1.4
2023-03-14T08:47:05.701Z,1.4
2023-03-14T08:48:19.933Z,1.4
2023-03-14T08:49:34.173Z,1.3
2023-03-14T08:50:48.383Z,1.6
2023-03-14T08:52:02.758Z,1.4
2023-03-14T08:53:17.053Z,1.7
2023-03-14T08:54:31.313Z,1.1
2023-03-14T08:55:45.525Z,1.3
2023-03-14T08:56:59.754Z,1.3
2023-03-14T08:58:13.993Z,1.5
2023-03-14T08:59:28.289Z,1.2
2023-03-14T09:00:42.520Z,1.2
2023-03-14T09:01:56.877Z,1.3
2023-03-14T09:03:11.099Z,1.4
2023-03-14T09:04:25.322Z,1.3
2023-03-14T09:05:39.631Z,1.5
2023-03-14T09:06:53.862Z,1.6
2023-03-14T09:08:08.096Z,1.4
2023-03-14T09:09:22.322Z,1.4
2023-03-14T09:10:36.539Z,1.5
2023-03-14T09:11:50.862Z,1.5
2023-03-14T09:13:05.086Z,1.5
2023-03-14T09:14:19.319Z,1.8
2023-03-14T09:15:33.546Z,1.4
2023-03-14T09:16:47.770Z,2.2
2023-03-14T09:18:02.073Z,1.4
2023-03-14T09:19:16.302Z,1.8
2023-03-14T09:20:30.541Z,1.7
2023-03-14T09:21:44.905Z,1.4
2023-03-14T09:22:59.138Z,1.5
2023-03-14T09:24:13.438Z,1.6
2023-03-14T09:26:41.908Z,1.9
2023-03-14T09:27:56.130Z,1.5
2023-03-14T09:29:10.362Z,1.4
2023-03-14T09:30:24.645Z,1.4
2023-03-14T09:31:38.886Z,1.5
2023-03-14T09:32:53.118Z,1.5
2023-03-14T09:34:07.486Z,1.5
2023-03-14T09:35:21.726Z,1.3
2023-03-14T09:36:36.021Z,1.7
2023-03-14T09:37:50.259Z,1.5
2023-03-14T09:39:04.477Z,1.5
2023-03-14T09:40:18.713Z,1.5
2023-03-14T09:41:32.932Z,1.6
2023-03-14T09:42:47.233Z,1.3
2023-03-14T09:44:01.485Z,1.6
2023-03-14T09:45:15.707Z,1.6
2023-03-14T09:46:30.047Z,1.3
2023-03-14T09:47:44.282Z,1
2023-03-14T09:48:58.577Z,0.9
2023-03-14T09:50:12.822Z,1.3
2023-03-14T09:51:27.056Z,1.2
2023-03-14T09:52:41.275Z,1.2
2023-03-14T09:53:55.492Z,1.1
2023-03-14T09:55:09.796Z,1.3
2023-03-14T09:56:24.050Z,1.7
2023-03-14T09:57:38.261Z,1.5
2023-03-14T09:58:52.501Z,1.3
2023-03-14T10:00:06.721Z,1.3
2023-03-14T10:01:21.027Z,1.2
2023-03-14T10:02:35.255Z,1.4
2023-03-14T10:03:49.638Z,1.5
2023-03-14T10:05:03.849Z,1.6
2023-03-14T10:06:18.208Z,1.3
2023-03-14T10:07:32.510Z,1
2023-03-14T10:08:46.750Z,0.7
2023-03-14T10:11:15.197Z,0.9
2023-03-14T10:12:29.437Z,0.8
2023-03-14T10:13:43.732Z,0.9
2023-03-14T10:14:57.969Z,0.9
2023-03-14T10:16:12.205Z,0.9
2023-03-14T10:18:40.646Z,0.8
2023-03-14T10:21:09.182Z,0.6
2023-03-14T10:22:23.431Z,0.8
2023-03-14T10:23:37.794Z,1
2023-03-14T10:24:52.010Z,0.6
2023-03-14T10:26:06.317Z,1
2023-03-14T10:27:20.562Z,0.8
2023-03-14T10:28:34.893Z,0.7
2023-03-14T10:29:49.131Z,0.8
2023-03-14T10:31:03.350Z,0.8
2023-03-14T10:32:17.648Z,0.9
2023-03-14T10:33:31.901Z,0.8
2023-03-14T10:34:46.120Z,0.7
2023-03-14T10:36:00.352Z,0.8
2023-03-14T10:38:28.884Z,0.8
2023-03-14T10:39:43.107Z,1
2023-03-14T10:40:57.337Z,0.7
2023-03-14T10:42:11.558Z,0.8
2023-03-14T10:43:25.928Z,0.8
2023-03-14T10:44:40.239Z,0.8
2023-03-14T10:45:54.482Z,0.8
2023-03-14T10:47:08.712Z,0.7
2023-03-14T10:48:22.000Z,1
2023-03-14T10:49:37.153Z,0.9
2023-03-14T10:50:51.455Z,0.8
2023-03-14T10:52:05.705Z,1
2023-03-14T10:53:19.918Z,0.9
2023-03-14T10:54:34.162Z,1
2023-03-14T10:55:48.493Z,1
2023-03-14T10:57:02.807Z,0.9
2023-03-14T11:00:45.492Z,0.7
2023-03-14T11:03:14.027Z,0.8
2023-03-14T11:05:42.486Z,1
2023-03-14T11:06:56.715Z,0.8
2023-03-14T11:08:10.947Z,0.9
2023-03-14T11:10:39.476Z,0.8
2023-03-14T11:11:53.722Z,0.8
2023-03-14T11:13:08.088Z,0.8
2023-03-14T11:14:22.315Z,0.9
2023-03-14T11:15:36.618Z,0.8
2023-03-14T11:16:50.858Z,1
2023-03-14T11:18:05.197Z,0.8
2023-03-14T11:19:19.423Z,0.9
2023-03-14T11:20:33.653Z,0.8
2023-03-14T11:21:47.961Z,0.7
2023-03-14T11:23:02.189Z,0.9
2023-03-14T11:24:16.414Z,0.8
2023-03-14T11:25:30.639Z,0.9
2023-03-14T11:26:44.872Z,0.9
2023-03-14T11:27:59.171Z,0.9
2023-03-14T11:29:13.421Z,0.9
2023-03-14T11:30:27.777Z,0.9
2023-03-14T11:32:56.227Z,0.9
2023-03-14T11:34:10.538Z,0.7
2023-03-14T11:35:24.784Z,0.9
2023-03-14T11:36:39.004Z,0.9
2023-03-14T11:37:53.239Z,0.9
2023-03-14T11:39:07.452Z,0.9
2023-03-14T11:40:21.751Z,0.9
2023-03-14T11:41:36.008Z,0.9
2023-03-14T11:42:50.340Z,1
2023-03-14T11:44:04.567Z,0.9
2023-03-14T11:45:18.935Z,1
2023-03-14T11:46:33.241Z,0.9
2023-03-14T11:49:01.706Z,1
2023-03-14T11:50:15.939Z,1.3
2023-03-14T11:51:30.167Z,0.9
2023-03-14T11:52:44.474Z,0.8
2023-03-14T11:53:58.709Z,0.9
2023-03-14T11:55:13.066Z,1
2023-03-14T11:56:27.290Z,1
2023-03-14T11:57:41.518Z,0.9
2023-03-14T11:58:55.821Z,0.9
2023-03-14T12:00:10.062Z,1.3
2023-03-14T12:01:24.276Z,0.9
2023-03-14T12:02:38.509Z,0.8
2023-03-14T12:03:52.733Z,1
2023-03-14T12:05:07.027Z,0.9
2023-03-14T12:06:21.278Z,1.4
2023-03-14T12:07:35.510Z,0.9
2023-03-14T12:08:49.721Z,0.7
2023-03-14T12:10:03.958Z,0.8
2023-03-14T12:11:18.259Z,1
2023-03-14T12:13:46.712Z,0.8
2023-03-14T12:15:00.958Z,0.9
2023-03-14T12:16:15.185Z,1
2023-03-14T12:17:29.482Z,1
2023-03-14T12:18:43.722Z,1.2
2023-03-14T12:19:58.062Z,1
2023-03-14T12:21:12.289Z,1
2023-03-14T12:22:26.518Z,1.1
2023-03-14T12:23:40.822Z,1.1
2023-03-14T12:24:55.051Z,0.9
2023-03-14T12:27:23.508Z,0.9
2023-03-14T12:28:37.743Z,1.3
2023-03-14T12:31:06.277Z,0.8
2023-03-14T12:32:20.507Z,1.1
2023-03-14T12:33:34.736Z,0.7
2023-03-14T12:34:48.957Z,0.8
2023-03-14T12:37:17.510Z,0.9
2023-03-14T12:38:31.723Z,0.9
2023-03-14T12:39:45.962Z,1.1
2023-03-14T12:41:00.172Z,1.3
2023-03-14T12:42:14.475Z,0.9
2023-03-14T12:43:28.717Z,1.1
2023-03-14T12:44:42.957Z,1
2023-03-14T12:45:57.168Z,0.9
2023-03-14T12:47:11.407Z,1
2023-03-14T12:48:25.711Z,0.9
2023-03-14T12:49:39.936Z,0.9
2023-03-14T12:50:54.169Z,0.8
2023-03-14T12:52:08.542Z,0.9
2023-03-14T12:53:22.764Z,1.1
2023-03-14T12:54:37.075Z,1.2
2023-03-14T12:55:51.313Z,0.9
2023-03-14T12:57:05.533Z,0.7
2023-03-14T12:58:19.755Z,1.2
2023-03-14T12:59:33.991Z,1
2023-03-14T13:00:48.296Z,1.1
2023-03-14T13:02:02.536Z,1.2
2023-03-14T13:03:16.752Z,0.9
2023-03-14T13:04:31.120Z,1.2
2023-03-14T13:05:45.355Z,1
2023-03-14T13:06:59.641Z,1
2023-03-14T13:08:13.892Z,1.3
2023-03-14T13:09:28.125Z,1.5
2023-03-14T13:10:42.341Z,1
2023-03-14T13:11:56.563Z,1.4
2023-03-14T13:13:10.881Z,0.9
2023-03-14T13:14:25.114Z,0.8
2023-03-14T13:15:39.335Z,0.8
2023-03-14T13:18:07.914Z,1
2023-03-14T13:19:22.218Z,1.5
2023-03-14T13:20:36.457Z,1.7
2023-03-14T13:21:50.680Z,0.9
2023-03-14T13:23:04.904Z,1.1
2023-03-14T13:24:19.131Z,1.5
2023-03-14T13:25:33.429Z,1.1
2023-03-14T13:26:47.676Z,1.3
2023-03-14T13:28:01.905Z,1.5
2023-03-14T13:29:16.136Z,1.3
2023-03-14T13:30:30.361Z,1.6
2023-03-14T13:31:44.655Z,1
2023-03-14T13:32:58.899Z,1.6
2023-03-14T13:34:13.124Z,1.3
2023-03-14T13:35:27.342Z,1.3
2023-03-14T13:36:41.715Z,1.1
2023-03-14T13:37:56.021Z,1.1
2023-03-14T13:39:10.271Z,1.1
2023-03-14T13:40:24.496Z,1.2
2023-03-14T13:41:38.838Z,1.7
2023-03-14T13:42:53.071Z,1
2023-03-14T13:44:07.368Z,1.4
2023-03-14T13:45:21.611Z,1.1
2023-03-14T13:46:35.830Z,1.8
2023-03-14T13:47:50.067Z,1.4
2023-03-14T13:49:04.289Z,0.8
2023-03-14T13:50:18.590Z,1.6
2023-03-14T13:51:32.824Z,1.5
2023-03-14T13:52:47.046Z,1
2023-03-14T13:54:01.287Z,1.4
2023-03-14T13:55:15.502Z,1.3
2023-03-14T13:56:29.806Z,1.5
2023-03-14T13:57:44.046Z,1.4
2023-03-14T13:58:58.411Z,1.1
2023-03-14T14:00:12.631Z,1.8
2023-03-14T14:01:26.858Z,1.4
2023-03-14T14:02:41.166Z,1.1
2023-03-14T14:03:55.415Z,1.3
2023-03-14T14:05:09.639Z,1.4
2023-03-14T14:06:23.866Z,1.5
2023-03-14T14:07:38.088Z,1.3
2023-03-14T14:08:52.384Z,1.1
2023-03-14T14:10:06.625Z,1.2
2023-03-14T14:11:20.987Z,1.2
2023-03-14T14:13:49.435Z,1.3
2023-03-14T14:15:03.735Z,1
2023-03-14T14:16:17.967Z,1.3
2023-03-14T14:17:32.207Z,1.1
2023-03-14T14:18:46.420Z,1.3
2023-03-14T14:20:00.656Z,1.1
2023-03-14T14:21:14.945Z,1.2
2023-03-14T14:22:29.202Z,1.4
2023-03-14T14:23:43.423Z,1.5
2023-03-14T14:24:57.651Z,1
2023-03-14T14:27:26.161Z,1.4
2023-03-14T14:28:40.407Z,1.3
2023-03-14T14:29:54.644Z,1.9
2023-03-14T14:31:09.001Z,1.5
2023-03-14T14:32:23.240Z,1.1
2023-03-14T14:33:37.538Z,1.7
2023-03-14T14:34:51.783Z,1.6
2023-03-14T14:36:06.011Z,2
2023-03-14T14:37:20.222Z,1.2
2023-03-14T14:38:34.593Z,1.4
2023-03-14T14:39:48.905Z,1.5
2023-03-14T14:41:03.134Z,1.3
2023-03-14T14:42:17.362Z,1
2023-03-14T14:43:31.593Z,1
2023-03-14T14:44:45.818Z,0.8
2023-03-14T14:47:14.361Z,1.2
2023-03-14T14:48:28.708Z,1.1
2023-03-14T14:49:42.933Z,1.2
2023-03-14T14:50:57.151Z,0.9
2023-03-14T14:52:11.453Z,1
2023-03-14T14:53:25.693Z,1.1
2023-03-14T14:54:39.923Z,1.3
2023-03-14T14:55:54.149Z,1.2
2023-03-14T14:58:22.682Z,1.2
2023-03-14T14:59:36.928Z,1.3
2023-03-14T15:00:51.300Z,1.6
2023-03-14T15:02:05.517Z,1.3
2023-03-14T15:03:19.748Z,1.7
2023-03-14T15:07:02.506Z,1.7
2023-03-14T15:08:16.744Z,1.8
2023-03-14T15:09:30.968Z,1.7
2023-03-14T15:10:45.262Z,1.7
2023-03-14T15:11:59.510Z,1.7
2023-03-14T15:13:13.736Z,2
2023-03-14T15:14:28.080Z,1.4
2023-03-14T15:15:42.307Z,0.9
2023-03-14T15:16:56.613Z,0.9
2023-03-14T15:18:10.839Z,1.2
2023-03-14T15:19:25.065Z,1.2
2023-03-14T15:20:39.301Z,1.1
2023-03-14T15:21:53.530Z,1
2023-03-14T15:23:07.827Z,1
2023-03-14T15:24:22.064Z,0.9
2023-03-14T15:25:36.301Z,0.8
2023-03-14T15:26:50.528Z,0.8
2023-03-14T15:28:04.745Z,1.1
2023-03-14T15:29:19.051Z,1.2
2023-03-14T15:30:33.283Z,1.6
2023-03-14T15:31:47.519Z,1.1
2023-03-14T15:33:01.894Z,1
2023-03-14T15:34:16.115Z,1.6
2023-03-14T15:35:30.415Z,1.8
2023-03-14T15:36:44.655Z,1.6
2023-03-14T15:37:58.875Z,1.8
2023-03-14T15:39:13.113Z,1.4
2023-03-14T15:40:27.338Z,1.5
2023-03-14T15:41:41.622Z,1.8
2023-03-14T15:42:55.878Z,0.9
2023-03-14T15:44:10.097Z,1
2023-03-14T15:45:24.333Z,0.8
2023-03-14T15:46:38.545Z,0.7
2023-03-14T15:47:52.854Z,1.4
2023-03-14T15:49:07.083Z,0.7
2023-03-14T15:50:21.314Z,1.3
2023-03-14T15:51:35.543Z,0.9
2023-03-14T15:52:49.764Z,0.8
2023-03-14T15:55:18.312Z,1.3
2023-03-14T15:56:32.539Z,1.1
2023-03-14T15:57:46.882Z,1
2023-03-14T15:59:01.108Z,0.9
2023-03-14T16:00:15.406Z,0.9
2023-03-14T16:01:29.662Z,0.8
2023-03-14T16:02:44.027Z,1
2023-03-14T16:03:58.249Z,1
2023-03-14T16:05:12.634Z,1.2
2023-03-14T16:06:26.915Z,1.4
2023-03-14T16:07:41.172Z,1.1
2023-03-14T16:08:55.398Z,0.9
2023-03-14T16:10:09.626Z,0.8
2023-03-14T16:12:38.143Z,0.8
2023-03-14T16:13:52.384Z,0.9
2023-03-14T16:15:06.620Z,0.8
2023-03-14T16:16:20.832Z,0.9
2023-03-14T16:17:35.071Z,0.7
2023-03-14T16:18:49.364Z,0.9
2023-03-14T16:20:03.598Z,0.8
2023-03-14T16:21:17.830Z,0.9
2023-03-14T16:22:32.062Z,0.9
2023-03-14T16:23:46.276Z,1
2023-03-14T16:25:00.576Z,0.7
2023-03-14T16:26:14.824Z,0.8
2023-03-14T16:27:29.182Z,1.1
2023-03-14T16:28:43.400Z,0.7
2023-03-14T16:29:57.634Z,0.9
2023-03-14T16:31:11.921Z,0.9
2023-03-14T16:32:26.172Z,1.1
2023-03-14T16:33:40.405Z,0.8
2023-03-14T16:34:54.627Z,0.7
2023-03-14T16:36:08.840Z,1.2
2023-03-14T16:37:23.140Z,1
2023-03-14T16:38:37.397Z,1
2023-03-14T16:39:51.626Z,1.3
2023-03-14T16:41:05.838Z,1
2023-03-14T16:42:20.062Z,0.8
2023-03-14T16:43:34.368Z,0.9
2023-03-14T16:44:48.603Z,0.8
2023-03-14T16:46:02.840Z,1.2
2023-03-14T16:47:17.207Z,0.8
2023-03-14T16:48:31.436Z,1
2023-03-14T16:49:45.740Z,1.3
2023-03-14T16:50:59.980Z,0.9
2023-03-14T16:52:14.194Z,0.7
2023-03-14T16:53:28.429Z,0.8
2023-03-14T16:54:42.657Z,0.9
2023-03-14T16:55:56.946Z,0.7
2023-03-14T16:57:11.197Z,1
2023-03-14T16:58:25.420Z,0.8
2023-03-14T16:59:39.797Z,1.2
2023-03-14T17:00:54.021Z,0.9
2023-03-14T17:02:08.313Z,1.1
2023-03-14T17:03:22.563Z,0.9
2023-03-14T17:05:51.153Z,0.9
2023-03-14T17:07:05.391Z,1.2
2023-03-14T17:08:19.691Z,1
2023-03-14T17:09:33.927Z,0.7
2023-03-14T17:10:48.160Z,1.1
2023-03-14T17:12:02.380Z,0.8
2023-03-14T17:13:16.598Z,0.7
2023-03-14T17:14:30.910Z,0.7
2023-03-14T17:15:45.154Z,0.8
2023-03-14T17:16:59.523Z,0.8
2023-03-14T17:18:13.747Z,0.8
2023-03-14T17:19:27.966Z,0.8
2023-03-14T17:20:42.262Z,0.6
2023-03-14T17:21:56.510Z,0.8
2023-03-14T17:23:10.740Z,0.7
2023-03-14T17:24:24.962Z,0.9
2023-03-14T17:25:39.195Z,0.7
2023-03-14T17:26:53.495Z,0.8
2023-03-14T17:28:07.736Z,0.9
2023-03-14T17:29:22.089Z,0.8
2023-03-14T17:30:36.307Z,0.9
2023-03-14T17:31:50.540Z,0.8
2023-03-14T17:33:04.824Z,1.1
2023-03-14T17:34:19.069Z,0.9
2023-03-14T17:35:33.299Z,1
2023-03-14T17:36:47.536Z,0.7
2023-03-14T17:38:01.754Z,0.9
2023-03-14T17:39:16.053Z,1.1
2023-03-14T17:40:30.294Z,1.6
2023-03-14T17:41:44.530Z,0.8
2023-03-14T17:42:58.740Z,0.8
2023-03-14T17:44:12.965Z,1.2
2023-03-14T17:45:27.266Z,0.7
2023-03-14T17:46:41.512Z,1
2023-03-14T17:47:55.736Z,0.9
2023-03-14T17:49:09.963Z,0.9
2023-03-14T17:50:24.199Z,0.8
2023-03-14T17:51:38.501Z,0.7
2023-03-14T17:52:52.743Z,0.8
2023-03-14T17:54:06.972Z,0.9
2023-03-14T17:55:21.191Z,0.8
2023-03-14T17:56:35.568Z,1.1
2023-03-14T17:57:49.921Z,1
2023-03-14T17:59:04.145Z,1.1
2023-03-14T18:00:18.387Z,0.9
2023-03-14T18:01:32.660Z,0.8
2023-03-14T18:02:46.950Z,0.5
2023-03-14T18:04:01.351Z,0.9
2023-03-14T18:05:15.640Z,0.8
2023-03-14T18:06:29.866Z,0.8
2023-03-14T18:07:44.091Z,0.8
2023-03-14T18:10:12.616Z,1.1
2023-03-14T18:11:26.873Z,0.9
2023-03-14T18:12:41.140Z,0.8
2023-03-14T18:13:55.562Z,0.6
2023-03-14T18:15:09.843Z,0.6
2023-03-14T18:16:24.262Z,0.7